sensor_id;sensor_type;location;lat;lon;timestamp;P1;durP1;ratioP1;P2;durP2;ratioP2
11921;SDS011;6021;51.182;3.160;2023-02-14T00:01:43;44.30;;;34.20;;
11921;SDS011;6021;51.182;3.160;2023-02-14T00:04:13;39.33;;;31.97;;
11921;SDS011;6021;51.182;3.160;2023-02-14T00:06:43;42.17;;;31.80;;
11921;SDS011;6021;51.182;3.160;2023-02-14T00:09:13;46.77;;;35.97;;
11921;SDS011;6021;51.182;3.160;2023-02-14T00:11:43;45.40;;;34.87;;
11921;SDS011;6021;51.182;3.160;2023-02-14T00:14:13;49.13;;;35.57;;
11921;SDS011;6021;51.182;3.160;2023-02-14T00:17:00;46.00;;;36.00;;
11921;SDS011;6021;51.182;3.160;2023-02-14T00:19:28;45.27;;;34.73;;
11921;SDS011;6021;51.182;3.160;2023-02-14T00:21:57;50.53;;;38.10;;
11921;SDS011;6021;51.182;3.160;2023-02-14T00:24:26;49.43;;;37.13;;
11921;SDS011;6021;51.182;3.160;2023-02-14T00:26:54;49.03;;;37.83;;
11921;SDS011;6021;51.182;3.160;2023-02-14T00:29:24;49.47;;;37.77;;
11921;SDS011;6021;51.182;3.160;2023-02-14T00:31:54;51.60;;;38.83;;
11921;SDS011;6021;51.182;3.160;2023-02-14T00:34:23;50.97;;;38.13;;
11921;SDS011;6021;51.182;3.160;2023-02-14T00:36:51;49.17;;;38.93;;
11921;SDS011;6021;51.182;3.160;2023-02-14T00:39:20;52.93;;;39.33;;
11921;SDS011;6021;51.182;3.160;2023-02-14T00:41:48;52.47;;;38.77;;
11921;SDS011;6021;51.182;3.160;2023-02-14T00:44:17;53.47;;;39.40;;
11921;SDS011;6021;51.182;3.160;2023-02-14T00:46:46;52.10;;;38.77;;
11921;SDS011;6021;51.182;3.160;2023-02-14T00:49:14;53.03;;;40.33;;
11921;SDS011;6021;51.182;3.160;2023-02-14T00:51:43;50.17;;;39.33;;
11921;SDS011;6021;51.182;3.160;2023-02-14T00:54:11;54.07;;;40.03;;
11921;SDS011;6021;51.182;3.160;2023-02-14T00:56:40;52.00;;;39.17;;
11921;SDS011;6021;51.182;3.160;2023-02-14T00:59:08;53.37;;;40.17;;
11921;SDS011;6021;51.182;3.160;2023-02-14T01:01:37;54.43;;;41.30;;
11921;SDS011;6021;51.182;3.160;2023-02-14T01:04:05;55.20;;;40.53;;
11921;SDS011;6021;51.182;3.160;2023-02-14T01:06:34;57.30;;;41.47;;
11921;SDS011;6021;51.182;3.160;2023-02-14T01:09:02;57.87;;;43.10;;
11921;SDS011;6021;51.182;3.160;2023-02-14T01:11:31;58.10;;;42.73;;
11921;SDS011;6021;51.182;3.160;2023-02-14T01:13:59;55.60;;;41.63;;
11921;SDS011;6021;51.182;3.160;2023-02-14T01:16:28;56.47;;;41.53;;
11921;SDS011;6021;51.182;3.160;2023-02-14T01:18:57;52.67;;;40.17;;
11921;SDS011;6021;51.182;3.160;2023-02-14T01:21:31;51.37;;;39.47;;
11921;SDS011;6021;51.182;3.160;2023-02-14T01:24:01;51.20;;;40.03;;
11921;SDS011;6021;51.182;3.160;2023-02-14T01:26:32;51.33;;;39.63;;
11921;SDS011;6021;51.182;3.160;2023-02-14T01:29:01;51.07;;;39.37;;
11921;SDS011;6021;51.182;3.160;2023-02-14T01:31:31;51.87;;;39.13;;
11921;SDS011;6021;51.182;3.160;2023-02-14T01:34:00;51.03;;;39.27;;
11921;SDS011;6021;51.182;3.160;2023-02-14T01:36:34;53.80;;;40.63;;
11921;SDS011;6021;51.182;3.160;2023-02-14T01:39:05;55.30;;;40.03;;
11921;SDS011;6021;51.182;3.160;2023-02-14T01:41:36;53.60;;;40.90;;
11921;SDS011;6021;51.182;3.160;2023-02-14T01:44:06;51.33;;;39.57;;
11921;SDS011;6021;51.182;3.160;2023-02-14T01:46:36;49.90;;;40.20;;
11921;SDS011;6021;51.182;3.160;2023-02-14T01:51:59;53.80;;;40.73;;
11921;SDS011;6021;51.182;3.160;2023-02-14T01:54:30;49.97;;;37.97;;
11921;SDS011;6021;51.182;3.160;2023-02-14T01:57:08;49.53;;;37.93;;
11921;SDS011;6021;51.182;3.160;2023-02-14T01:59:34;46.70;;;37.47;;
11921;SDS011;6021;51.182;3.160;2023-02-14T02:02:04;45.43;;;36.27;;
11921;SDS011;6021;51.182;3.160;2023-02-14T02:04:34;47.73;;;37.23;;
11921;SDS011;6021;51.182;3.160;2023-02-14T02:07:09;52.43;;;39.60;;
11921;SDS011;6021;51.182;3.160;2023-02-14T02:12:23;48.97;;;38.10;;
11921;SDS011;6021;51.182;3.160;2023-02-14T02:14:52;53.93;;;39.73;;
11921;SDS011;6021;51.182;3.160;2023-02-14T02:34:37;57.43;;;41.83;;
11921;SDS011;6021;51.182;3.160;2023-02-14T02:37:26;57.53;;;42.37;;
11921;SDS011;6021;51.182;3.160;2023-02-14T02:45:30;62.97;;;43.13;;
11921;SDS011;6021;51.182;3.160;2023-02-14T02:48:34;60.90;;;43.63;;
11921;SDS011;6021;51.182;3.160;2023-02-14T02:51:09;58.27;;;42.07;;
11921;SDS011;6021;51.182;3.160;2023-02-14T06:59:05;50.70;;;37.30;;
11921;SDS011;6021;51.182;3.160;2023-02-14T07:01:39;51.87;;;37.67;;
11921;SDS011;6021;51.182;3.160;2023-02-14T07:04:13;50.63;;;38.43;;
11921;SDS011;6021;51.182;3.160;2023-02-14T07:06:47;49.70;;;37.53;;
11921;SDS011;6021;51.182;3.160;2023-02-14T07:09:19;52.17;;;38.63;;
11921;SDS011;6021;51.182;3.160;2023-02-14T07:11:54;52.30;;;38.73;;
11921;SDS011;6021;51.182;3.160;2023-02-14T07:14:22;50.80;;;37.10;;
11921;SDS011;6021;51.182;3.160;2023-02-14T07:16:54;49.13;;;36.63;;
11921;SDS011;6021;51.182;3.160;2023-02-14T07:19:40;52.43;;;38.90;;
11921;SDS011;6021;51.182;3.160;2023-02-14T07:22:14;46.17;;;35.97;;
11921;SDS011;6021;51.182;3.160;2023-02-14T07:24:49;47.03;;;36.13;;
11921;SDS011;6021;51.182;3.160;2023-02-14T07:27:18;48.83;;;35.60;;
11921;SDS011;6021;51.182;3.160;2023-02-14T07:30:05;51.03;;;36.83;;
11921;SDS011;6021;51.182;3.160;2023-02-14T07:32:29;51.10;;;36.50;;
11921;SDS011;6021;51.182;3.160;2023-02-14T07:35:00;53.77;;;38.47;;
11921;SDS011;6021;51.182;3.160;2023-02-14T07:37:32;53.73;;;38.63;;
11921;SDS011;6021;51.182;3.160;2023-02-14T07:40:04;56.03;;;39.70;;
11921;SDS011;6021;51.182;3.160;2023-02-14T07:42:32;54.30;;;39.67;;
11921;SDS011;6021;51.182;3.160;2023-02-14T07:45:12;58.10;;;39.73;;
11921;SDS011;6021;51.182;3.160;2023-02-14T07:47:46;56.90;;;41.10;;
11921;SDS011;6021;51.182;3.160;2023-02-14T07:50:27;61.67;;;41.87;;
11921;SDS011;6021;51.182;3.160;2023-02-14T07:52:56;58.00;;;39.97;;
11921;SDS011;6021;51.182;3.160;2023-02-14T07:55:35;55.27;;;40.87;;
11921;SDS011;6021;51.182;3.160;2023-02-14T08:01:10;56.87;;;39.70;;
11921;SDS011;6021;51.182;3.160;2023-02-14T08:03:38;57.03;;;41.03;;
11921;SDS011;6021;51.182;3.160;2023-02-14T08:06:09;53.73;;;39.87;;
11921;SDS011;6021;51.182;3.160;2023-02-14T08:08:37;59.33;;;41.57;;
11921;SDS011;6021;51.182;3.160;2023-02-14T08:11:05;54.33;;;40.43;;
11921;SDS011;6021;51.182;3.160;2023-02-14T08:13:34;55.87;;;40.63;;
11921;SDS011;6021;51.182;3.160;2023-02-14T08:16:02;52.10;;;39.17;;
11921;SDS011;6021;51.182;3.160;2023-02-14T08:18:35;52.27;;;39.30;;
11921;SDS011;6021;51.182;3.160;2023-02-14T08:21:05;54.40;;;40.57;;
11921;SDS011;6021;51.182;3.160;2023-02-14T08:23:35;54.20;;;40.53;;
11921;SDS011;6021;51.182;3.160;2023-02-14T08:26:04;51.97;;;38.90;;
11921;SDS011;6021;51.182;3.160;2023-02-14T08:28:32;45.80;;;35.43;;
11921;SDS011;6021;51.182;3.160;2023-02-14T08:31:02;50.93;;;38.80;;
11921;SDS011;6021;51.182;3.160;2023-02-14T08:33:31;48.33;;;38.23;;
11921;SDS011;6021;51.182;3.160;2023-02-14T08:35:59;49.23;;;38.27;;
11921;SDS011;6021;51.182;3.160;2023-02-14T08:38:29;50.20;;;37.97;;
11921;SDS011;6021;51.182;3.160;2023-02-14T08:41:00;50.93;;;38.73;;
11921;SDS011;6021;51.182;3.160;2023-02-14T08:43:29;46.30;;;31.30;;
11921;SDS011;6021;51.182;3.160;2023-02-14T08:45:57;51.97;;;39.47;;
11921;SDS011;6021;51.182;3.160;2023-02-14T08:48:27;45.20;;;36.23;;
11921;SDS011;6021;51.182;3.160;2023-02-14T08:50:55;44.57;;;35.53;;
11921;SDS011;6021;51.182;3.160;2023-02-14T08:53:24;49.03;;;31.57;;
11921;SDS011;6021;51.182;3.160;2023-02-14T08:55:52;45.80;;;36.63;;
11921;SDS011;6021;51.182;3.160;2023-02-14T08:58:20;42.97;;;29.80;;
11921;SDS011;6021;51.182;3.160;2023-02-14T09:00:49;44.63;;;37.10;;
11921;SDS011;6021;51.182;3.160;2023-02-14T09:03:17;41.00;;;34.50;;
11921;SDS011;6021;51.182;3.160;2023-02-14T09:05:46;49.40;;;37.37;;
11921;SDS011;6021;51.182;3.160;2023-02-14T09:08:14;45.93;;;36.33;;
11921;SDS011;6021;51.182;3.160;2023-02-14T09:10:42;48.27;;;38.17;;
11921;SDS011;6021;51.182;3.160;2023-02-14T09:13:11;49.83;;;38.97;;
11921;SDS011;6021;51.182;3.160;2023-02-14T09:15:40;45.73;;;36.67;;
11921;SDS011;6021;51.182;3.160;2023-02-14T09:18:10;43.97;;;35.77;;
11921;SDS011;6021;51.182;3.160;2023-02-14T09:20:38;46.93;;;38.13;;
11921;SDS011;6021;51.182;3.160;2023-02-14T09:23:06;44.20;;;36.67;;
11921;SDS011;6021;51.182;3.160;2023-02-14T09:25:35;46.43;;;38.33;;
11921;SDS011;6021;51.182;3.160;2023-02-14T09:28:05;45.30;;;36.63;;
11921;SDS011;6021;51.182;3.160;2023-02-14T09:30:33;39.33;;;27.73;;
11921;SDS011;6021;51.182;3.160;2023-02-14T09:33:02;35.30;;;24.80;;
11921;SDS011;6021;51.182;3.160;2023-02-14T09:35:31;42.53;;;30.30;;
11921;SDS011;6021;51.182;3.160;2023-02-14T09:38:01;35.80;;;26.47;;
11921;SDS011;6021;51.182;3.160;2023-02-14T09:40:45;36.33;;;26.83;;
11921;SDS011;6021;51.182;3.160;2023-02-14T09:45:59;42.30;;;28.60;;
11921;SDS011;6021;51.182;3.160;2023-02-14T09:48:30;42.37;;;28.77;;
11921;SDS011;6021;51.182;3.160;2023-02-14T09:51:02;41.13;;;28.17;;
11921;SDS011;6021;51.182;3.160;2023-02-14T09:53:43;38.70;;;28.07;;
11921;SDS011;6021;51.182;3.160;2023-02-14T09:56:11;39.70;;;27.53;;
11921;SDS011;6021;51.182;3.160;2023-02-14T10:01:32;41.73;;;29.20;;
11921;SDS011;6021;51.182;3.160;2023-02-14T10:15:19;41.43;;;29.30;;
11921;SDS011;6021;51.182;3.160;2023-02-14T10:17:54;38.33;;;27.37;;
11921;SDS011;6021;51.182;3.160;2023-02-14T10:20:30;35.77;;;28.43;;
11921;SDS011;6021;51.182;3.160;2023-02-14T10:23:02;41.00;;;30.30;;
11921;SDS011;6021;51.182;3.160;2023-02-14T10:26:02;43.77;;;29.23;;
11921;SDS011;6021;51.182;3.160;2023-02-14T10:28:40;43.60;;;29.80;;
11921;SDS011;6021;51.182;3.160;2023-02-14T10:31:23;38.67;;;27.53;;
11921;SDS011;6021;51.182;3.160;2023-02-14T10:34:19;38.03;;;28.70;;
11921;SDS011;6021;51.182;3.160;2023-02-14T10:39:39;37.63;;;28.20;;
11921;SDS011;6021;51.182;3.160;2023-02-14T10:44:59;37.47;;;32.63;;
11921;SDS011;6021;51.182;3.160;2023-02-14T10:47:41;37.13;;;32.47;;
11921;SDS011;6021;51.182;3.160;2023-02-14T10:50:20;37.13;;;33.00;;
11921;SDS011;6021;51.182;3.160;2023-02-14T10:53:14;36.33;;;32.40;;
11921;SDS011;6021;51.182;3.160;2023-02-14T10:55:31;38.77;;;34.33;;
11921;SDS011;6021;51.182;3.160;2023-02-14T10:58:01;36.70;;;32.67;;
11921;SDS011;6021;51.182;3.160;2023-02-14T11:00:33;39.03;;;34.20;;
11921;SDS011;6021;51.182;3.160;2023-02-14T11:03:05;39.47;;;35.10;;
11921;SDS011;6021;51.182;3.160;2023-02-14T11:05:45;41.90;;;35.70;;
11921;SDS011;6021;51.182;3.160;2023-02-14T11:08:14;41.23;;;35.93;;
11921;SDS011;6021;51.182;3.160;2023-02-14T11:10:47;38.00;;;30.33;;
11921;SDS011;6021;51.182;3.160;2023-02-14T11:13:26;40.40;;;30.37;;
11921;SDS011;6021;51.182;3.160;2023-02-14T11:16:03;42.37;;;31.57;;
11921;SDS011;6021;51.182;3.160;2023-02-14T11:18:34;40.00;;;34.10;;
11921;SDS011;6021;51.182;3.160;2023-02-14T11:21:07;43.33;;;32.10;;
11921;SDS011;6021;51.182;3.160;2023-02-14T11:23:44;44.80;;;32.53;;
11921;SDS011;6021;51.182;3.160;2023-02-14T11:26:29;39.20;;;28.80;;
11921;SDS011;6021;51.182;3.160;2023-02-14T11:29:02;43.90;;;33.33;;
11921;SDS011;6021;51.182;3.160;2023-02-14T11:31:32;36.13;;;29.17;;
11921;SDS011;6021;51.182;3.160;2023-02-14T11:34:20;43.33;;;35.03;;
11921;SDS011;6021;51.182;3.160;2023-02-14T11:36:53;39.83;;;32.97;;
11921;SDS011;6021;51.182;3.160;2023-02-14T11:39:29;42.53;;;33.43;;
11921;SDS011;6021;51.182;3.160;2023-02-14T11:42:02;40.10;;;32.67;;
11921;SDS011;6021;51.182;3.160;2023-02-14T11:44:33;41.43;;;31.33;;
11921;SDS011;6021;51.182;3.160;2023-02-14T11:47:16;43.47;;;34.80;;
11921;SDS011;6021;51.182;3.160;2023-02-14T11:49:56;45.23;;;33.47;;
11921;SDS011;6021;51.182;3.160;2023-02-14T11:52:27;42.30;;;31.43;;
11921;SDS011;6021;51.182;3.160;2023-02-14T11:54:57;44.13;;;32.50;;
11921;SDS011;6021;51.182;3.160;2023-02-14T11:57:36;46.37;;;33.80;;
11921;SDS011;6021;51.182;3.160;2023-02-14T12:00:00;43.10;;;31.40;;
11921;SDS011;6021;51.182;3.160;2023-02-14T12:05:19;42.50;;;31.60;;
11921;SDS011;6021;51.182;3.160;2023-02-14T12:07:51;46.23;;;33.80;;
11921;SDS011;6021;51.182;3.160;2023-02-14T12:10:29;43.87;;;32.97;;
11921;SDS011;6021;51.182;3.160;2023-02-14T12:15:48;44.03;;;34.10;;
11921;SDS011;6021;51.182;3.160;2023-02-14T12:20:59;42.03;;;31.27;;
11921;SDS011;6021;51.182;3.160;2023-02-14T12:23:53;39.60;;;29.77;;
11921;SDS011;6021;51.182;3.160;2023-02-14T12:31:58;46.27;;;31.40;;
11921;SDS011;6021;51.182;3.160;2023-02-14T12:34:28;45.50;;;32.63;;
11921;SDS011;6021;51.182;3.160;2023-02-14T12:37:02;45.40;;;30.10;;
11921;SDS011;6021;51.182;3.160;2023-02-14T12:48:04;41.97;;;30.57;;
11921;SDS011;6021;51.182;3.160;2023-02-14T12:50:35;40.90;;;30.10;;
11921;SDS011;6021;51.182;3.160;2023-02-14T12:53:15;40.70;;;30.27;;
11921;SDS011;6021;51.182;3.160;2023-02-14T12:55:57;43.30;;;31.40;;
11921;SDS011;6021;51.182;3.160;2023-02-14T12:58:45;40.57;;;30.47;;
11921;SDS011;6021;51.182;3.160;2023-02-14T13:04:27;40.67;;;33.10;;
11921;SDS011;6021;51.182;3.160;2023-02-14T13:06:58;41.23;;;34.70;;
11921;SDS011;6021;51.182;3.160;2023-02-14T13:09:50;41.27;;;34.63;;
11921;SDS011;6021;51.182;3.160;2023-02-14T13:12:33;38.33;;;29.17;;
11921;SDS011;6021;51.182;3.160;2023-02-14T13:15:30;41.93;;;32.20;;
11921;SDS011;6021;51.182;3.160;2023-02-14T13:18:17;41.83;;;34.37;;
11921;SDS011;6021;51.182;3.160;2023-02-14T13:20:47;41.27;;;32.23;;
11921;SDS011;6021;51.182;3.160;2023-02-14T13:26:12;39.03;;;31.83;;
11921;SDS011;6021;51.182;3.160;2023-02-14T13:28:38;38.70;;;31.07;;
11921;SDS011;6021;51.182;3.160;2023-02-14T13:31:09;43.13;;;35.57;;
11921;SDS011;6021;51.182;3.160;2023-02-14T13:33:39;43.40;;;35.67;;
11921;SDS011;6021;51.182;3.160;2023-02-14T13:36:10;43.17;;;32.87;;
11921;SDS011;6021;51.182;3.160;2023-02-14T13:38:43;44.60;;;33.37;;
11921;SDS011;6021;51.182;3.160;2023-02-14T13:41:14;40.33;;;30.63;;
11921;SDS011;6021;51.182;3.160;2023-02-14T13:43:43;36.80;;;27.70;;
11921;SDS011;6021;51.182;3.160;2023-02-14T13:46:13;41.33;;;32.90;;
11921;SDS011;6021;51.182;3.160;2023-02-14T13:48:54;39.00;;;30.23;;
11921;SDS011;6021;51.182;3.160;2023-02-14T13:51:46;41.40;;;31.13;;
11921;SDS011;6021;51.182;3.160;2023-02-14T13:57:36;42.73;;;31.00;;
11921;SDS011;6021;51.182;3.160;2023-02-14T14:02:52;43.20;;;32.93;;
11921;SDS011;6021;51.182;3.160;2023-02-14T14:10:53;44.33;;;34.43;;
11921;SDS011;6021;51.182;3.160;2023-02-14T14:19:01;45.67;;;30.30;;
11921;SDS011;6021;51.182;3.160;2023-02-14T14:22:06;42.80;;;30.60;;
11921;SDS011;6021;51.182;3.160;2023-02-14T14:24:42;43.30;;;31.00;;
11921;SDS011;6021;51.182;3.160;2023-02-14T14:27:13;39.17;;;30.10;;
11921;SDS011;6021;51.182;3.160;2023-02-14T14:29:44;33.90;;;27.23;;
11921;SDS011;6021;51.182;3.160;2023-02-14T14:37:30;39.97;;;29.83;;
11921;SDS011;6021;51.182;3.160;2023-02-14T14:40:02;40.40;;;33.33;;
11921;SDS011;6021;51.182;3.160;2023-02-14T14:42:36;39.70;;;32.97;;
11921;SDS011;6021;51.182;3.160;2023-02-14T14:45:07;36.87;;;30.77;;
11921;SDS011;6021;51.182;3.160;2023-02-14T14:47:41;45.07;;;33.17;;
11921;SDS011;6021;51.182;3.160;2023-02-14T14:50:15;39.43;;;30.97;;
11921;SDS011;6021;51.182;3.160;2023-02-14T14:53:00;38.93;;;30.60;;
11921;SDS011;6021;51.182;3.160;2023-02-14T14:55:33;35.57;;;28.90;;
11921;SDS011;6021;51.182;3.160;2023-02-14T14:57:58;39.63;;;28.80;;
11921;SDS011;6021;51.182;3.160;2023-02-14T15:00:34;34.77;;;26.93;;
11921;SDS011;6021;51.182;3.160;2023-02-14T15:05:49;37.63;;;29.30;;
11921;SDS011;6021;51.182;3.160;2023-02-14T15:08:26;34.50;;;27.60;;
11921;SDS011;6021;51.182;3.160;2023-02-14T15:10:55;39.60;;;29.90;;
11921;SDS011;6021;51.182;3.160;2023-02-14T15:13:34;41.53;;;32.50;;
11921;SDS011;6021;51.182;3.160;2023-02-14T15:16:16;36.50;;;28.17;;
11921;SDS011;6021;51.182;3.160;2023-02-14T15:18:47;38.10;;;29.37;;
11921;SDS011;6021;51.182;3.160;2023-02-14T15:21:16;31.83;;;25.23;;
11921;SDS011;6021;51.182;3.160;2023-02-14T15:23:45;40.57;;;32.40;;
11921;SDS011;6021;51.182;3.160;2023-02-14T15:26:17;40.90;;;33.17;;
11921;SDS011;6021;51.182;3.160;2023-02-14T15:28:55;36.83;;;30.93;;
11921;SDS011;6021;51.182;3.160;2023-02-14T15:31:37;37.10;;;27.93;;
11921;SDS011;6021;51.182;3.160;2023-02-14T15:34:03;36.67;;;29.23;;
11921;SDS011;6021;51.182;3.160;2023-02-14T15:36:32;40.83;;;32.00;;
11921;SDS011;6021;51.182;3.160;2023-02-14T15:39:03;34.93;;;27.80;;
11921;SDS011;6021;51.182;3.160;2023-02-14T15:41:32;35.80;;;27.77;;
11921;SDS011;6021;51.182;3.160;2023-02-14T15:44:01;38.40;;;27.70;;
11921;SDS011;6021;51.182;3.160;2023-02-14T15:46:31;35.50;;;26.63;;
11921;SDS011;6021;51.182;3.160;2023-02-14T15:49:04;37.10;;;26.37;;
11921;SDS011;6021;51.182;3.160;2023-02-14T15:51:32;35.37;;;27.70;;
11921;SDS011;6021;51.182;3.160;2023-02-14T15:54:07;34.17;;;24.77;;
11921;SDS011;6021;51.182;3.160;2023-02-14T15:56:39;32.90;;;24.93;;
11921;SDS011;6021;51.182;3.160;2023-02-14T15:59:05;40.93;;;30.03;;
11921;SDS011;6021;51.182;3.160;2023-02-14T16:01:35;38.30;;;28.40;;
11921;SDS011;6021;51.182;3.160;2023-02-14T16:04:05;39.43;;;29.37;;
11921;SDS011;6021;51.182;3.160;2023-02-14T16:06:35;40.93;;;28.17;;
11921;SDS011;6021;51.182;3.160;2023-02-14T16:09:23;37.27;;;28.27;;
11921;SDS011;6021;51.182;3.160;2023-02-14T16:11:55;38.97;;;27.30;;
11921;SDS011;6021;51.182;3.160;2023-02-14T16:17:06;36.70;;;26.77;;
11921;SDS011;6021;51.182;3.160;2023-02-14T16:19:43;31.93;;;23.30;;
11921;SDS011;6021;51.182;3.160;2023-02-14T16:22:23;38.90;;;27.03;;
11921;SDS011;6021;51.182;3.160;2023-02-14T16:24:54;40.03;;;26.63;;
11921;SDS011;6021;51.182;3.160;2023-02-14T16:27:22;35.77;;;25.90;;
11921;SDS011;6021;51.182;3.160;2023-02-14T16:29:50;40.63;;;28.50;;
11921;SDS011;6021;51.182;3.160;2023-02-14T16:32:19;36.93;;;25.93;;
11921;SDS011;6021;51.182;3.160;2023-02-14T16:34:49;36.00;;;25.70;;
11921;SDS011;6021;51.182;3.160;2023-02-14T16:37:27;38.70;;;27.37;;
11921;SDS011;6021;51.182;3.160;2023-02-14T16:39:52;38.30;;;25.23;;
11921;SDS011;6021;51.182;3.160;2023-02-14T16:42:23;40.83;;;25.60;;
11921;SDS011;6021;51.182;3.160;2023-02-14T16:44:51;39.87;;;25.70;;
11921;SDS011;6021;51.182;3.160;2023-02-14T16:47:20;37.00;;;24.20;;
11921;SDS011;6021;51.182;3.160;2023-02-14T16:49:48;43.07;;;28.53;;
11921;SDS011;6021;51.182;3.160;2023-02-14T16:52:24;38.63;;;25.83;;
11921;SDS011;6021;51.182;3.160;2023-02-14T16:54:52;39.33;;;25.63;;
11921;SDS011;6021;51.182;3.160;2023-02-14T16:57:31;36.57;;;24.73;;
11921;SDS011;6021;51.182;3.160;2023-02-14T16:59:57;36.83;;;25.53;;
11921;SDS011;6021;51.182;3.160;2023-02-14T17:02:26;36.77;;;25.50;;
11921;SDS011;6021;51.182;3.160;2023-02-14T17:04:54;36.90;;;25.00;;
11921;SDS011;6021;51.182;3.160;2023-02-14T17:07:23;37.13;;;24.77;;
11921;SDS011;6021;51.182;3.160;2023-02-14T17:09:53;39.07;;;25.67;;
11921;SDS011;6021;51.182;3.160;2023-02-14T17:12:26;41.13;;;25.67;;
11921;SDS011;6021;51.182;3.160;2023-02-14T17:14:56;36.03;;;24.73;;
11921;SDS011;6021;51.182;3.160;2023-02-14T17:17:28;37.07;;;26.00;;
11921;SDS011;6021;51.182;3.160;2023-02-14T17:19:56;38.83;;;26.20;;
11921;SDS011;6021;51.182;3.160;2023-02-14T17:22:25;38.40;;;24.70;;
11921;SDS011;6021;51.182;3.160;2023-02-14T17:24:53;36.73;;;25.73;;
11921;SDS011;6021;51.182;3.160;2023-02-14T17:27:22;39.87;;;25.90;;
11921;SDS011;6021;51.182;3.160;2023-02-14T17:29:50;44.80;;;28.33;;
11921;SDS011;6021;51.182;3.160;2023-02-14T17:32:18;42.77;;;28.27;;
11921;SDS011;6021;51.182;3.160;2023-02-14T17:34:47;47.13;;;38.07;;
11921;SDS011;6021;51.182;3.160;2023-02-14T17:37:15;48.37;;;29.57;;
11921;SDS011;6021;51.182;3.160;2023-02-14T17:39:44;46.50;;;30.63;;
11921;SDS011;6021;51.182;3.160;2023-02-14T17:42:12;56.50;;;40.37;;
11921;SDS011;6021;51.182;3.160;2023-02-14T17:44:41;50.83;;;39.13;;
11921;SDS011;6021;51.182;3.160;2023-02-14T17:47:10;43.70;;;34.87;;
11921;SDS011;6021;51.182;3.160;2023-02-14T17:49:40;47.67;;;36.83;;
11921;SDS011;6021;51.182;3.160;2023-02-14T17:52:08;48.13;;;36.73;;
11921;SDS011;6021;51.182;3.160;2023-02-14T17:54:37;45.03;;;36.17;;
11921;SDS011;6021;51.182;3.160;2023-02-14T17:57:05;41.87;;;34.53;;
11921;SDS011;6021;51.182;3.160;2023-02-14T17:59:34;41.00;;;32.40;;
11921;SDS011;6021;51.182;3.160;2023-02-14T18:02:02;51.10;;;38.80;;
11921;SDS011;6021;51.182;3.160;2023-02-14T18:04:31;48.33;;;37.97;;
11921;SDS011;6021;51.182;3.160;2023-02-14T18:07:02;44.53;;;36.43;;
11921;SDS011;6021;51.182;3.160;2023-02-14T18:09:31;51.23;;;39.97;;
11921;SDS011;6021;51.182;3.160;2023-02-14T18:11:59;43.23;;;35.40;;
11921;SDS011;6021;51.182;3.160;2023-02-14T18:14:28;44.57;;;36.53;;
11921;SDS011;6021;51.182;3.160;2023-02-14T18:16:56;43.67;;;34.67;;
11921;SDS011;6021;51.182;3.160;2023-02-14T18:19:25;50.10;;;37.73;;
11921;SDS011;6021;51.182;3.160;2023-02-14T18:21:54;44.90;;;34.80;;
11921;SDS011;6021;51.182;3.160;2023-02-14T18:24:22;51.07;;;38.00;;
11921;SDS011;6021;51.182;3.160;2023-02-14T18:26:53;43.37;;;35.70;;
11921;SDS011;6021;51.182;3.160;2023-02-14T18:29:21;46.67;;;35.13;;
11921;SDS011;6021;51.182;3.160;2023-02-14T18:31:50;46.03;;;35.67;;
11921;SDS011;6021;51.182;3.160;2023-02-14T18:34:18;49.83;;;38.70;;
11921;SDS011;6021;51.182;3.160;2023-02-14T18:36:47;53.90;;;41.30;;
11921;SDS011;6021;51.182;3.160;2023-02-14T18:39:15;51.00;;;40.03;;
11921;SDS011;6021;51.182;3.160;2023-02-14T18:41:46;47.20;;;36.87;;
11921;SDS011;6021;51.182;3.160;2023-02-14T18:44:14;54.00;;;41.17;;
11921;SDS011;6021;51.182;3.160;2023-02-14T18:46:42;45.63;;;37.90;;
11921;SDS011;6021;51.182;3.160;2023-02-14T18:49:11;49.77;;;38.97;;
11921;SDS011;6021;51.182;3.160;2023-02-14T18:51:40;50.40;;;39.33;;
11921;SDS011;6021;51.182;3.160;2023-02-14T18:54:09;48.57;;;38.47;;
11921;SDS011;6021;51.182;3.160;2023-02-14T18:56:37;48.10;;;37.33;;
11921;SDS011;6021;51.182;3.160;2023-02-14T18:59:07;50.20;;;39.60;;
11921;SDS011;6021;51.182;3.160;2023-02-14T19:01:37;48.17;;;38.27;;
11921;SDS011;6021;51.182;3.160;2023-02-14T19:04:08;51.27;;;38.57;;
11921;SDS011;6021;51.182;3.160;2023-02-14T19:06:38;53.73;;;41.73;;
11921;SDS011;6021;51.182;3.160;2023-02-14T19:09:12;57.20;;;42.40;;
11921;SDS011;6021;51.182;3.160;2023-02-14T19:11:43;58.83;;;43.53;;
11921;SDS011;6021;51.182;3.160;2023-02-14T19:14:11;61.23;;;46.30;;
11921;SDS011;6021;51.182;3.160;2023-02-14T19:16:41;56.43;;;43.63;;
11921;SDS011;6021;51.182;3.160;2023-02-14T19:19:12;53.40;;;41.73;;
11921;SDS011;6021;51.182;3.160;2023-02-14T19:21:41;50.53;;;33.33;;
11921;SDS011;6021;51.182;3.160;2023-02-14T19:24:09;50.13;;;39.67;;
11921;SDS011;6021;51.182;3.160;2023-02-14T19:26:40;51.87;;;40.00;;
11921;SDS011;6021;51.182;3.160;2023-02-14T19:29:10;53.90;;;42.03;;
11921;SDS011;6021;51.182;3.160;2023-02-14T19:31:41;56.67;;;42.67;;
11921;SDS011;6021;51.182;3.160;2023-02-14T19:34:15;58.23;;;42.50;;
11921;SDS011;6021;51.182;3.160;2023-02-14T19:36:46;56.73;;;43.93;;
11921;SDS011;6021;51.182;3.160;2023-02-14T19:39:15;58.10;;;44.40;;
11921;SDS011;6021;51.182;3.160;2023-02-14T19:41:44;56.20;;;43.60;;
11921;SDS011;6021;51.182;3.160;2023-02-14T19:44:13;50.47;;;39.50;;
11921;SDS011;6021;51.182;3.160;2023-02-14T19:46:43;51.23;;;40.30;;
11921;SDS011;6021;51.182;3.160;2023-02-14T19:49:14;53.17;;;40.50;;
11921;SDS011;6021;51.182;3.160;2023-02-14T19:51:44;59.03;;;43.60;;
11921;SDS011;6021;51.182;3.160;2023-02-14T19:54:14;56.43;;;42.77;;
11921;SDS011;6021;51.182;3.160;2023-02-14T19:56:43;53.57;;;42.50;;
11921;SDS011;6021;51.182;3.160;2023-02-14T19:59:13;56.80;;;42.03;;
11921;SDS011;6021;51.182;3.160;2023-02-14T20:01:52;58.70;;;44.77;;
11921;SDS011;6021;51.182;3.160;2023-02-14T20:04:18;65.07;;;48.63;;
11921;SDS011;6021;51.182;3.160;2023-02-14T20:06:49;60.93;;;44.97;;
11921;SDS011;6021;51.182;3.160;2023-02-14T20:09:18;61.53;;;45.90;;
11921;SDS011;6021;51.182;3.160;2023-02-14T20:11:51;70.77;;;50.50;;
11921;SDS011;6021;51.182;3.160;2023-02-14T20:14:22;66.73;;;47.83;;
11921;SDS011;6021;51.182;3.160;2023-02-14T20:16:55;62.50;;;46.73;;
11921;SDS011;6021;51.182;3.160;2023-02-14T20:19:26;62.87;;;46.13;;
11921;SDS011;6021;51.182;3.160;2023-02-14T20:21:57;56.50;;;42.70;;
11921;SDS011;6021;51.182;3.160;2023-02-14T20:24:27;60.07;;;44.33;;
11921;SDS011;6021;51.182;3.160;2023-02-14T20:26:57;57.80;;;42.77;;
11921;SDS011;6021;51.182;3.160;2023-02-14T20:29:26;63.57;;;46.43;;
11921;SDS011;6021;51.182;3.160;2023-02-14T20:31:56;58.13;;;44.40;;
11921;SDS011;6021;51.182;3.160;2023-02-14T20:34:26;63.10;;;44.47;;
11921;SDS011;6021;51.182;3.160;2023-02-14T20:36:55;69.83;;;50.97;;
11921;SDS011;6021;51.182;3.160;2023-02-14T20:39:26;66.63;;;49.43;;
11921;SDS011;6021;51.182;3.160;2023-02-14T20:41:59;69.90;;;49.17;;
11921;SDS011;6021;51.182;3.160;2023-02-14T20:44:28;68.03;;;47.93;;
11921;SDS011;6021;51.182;3.160;2023-02-14T20:46:57;65.93;;;48.03;;
11921;SDS011;6021;51.182;3.160;2023-02-14T20:49:26;66.50;;;46.73;;
11921;SDS011;6021;51.182;3.160;2023-02-14T20:51:56;57.37;;;43.67;;
11921;SDS011;6021;51.182;3.160;2023-02-14T20:54:26;55.03;;;34.77;;
11921;SDS011;6021;51.182;3.160;2023-02-14T20:56:55;69.87;;;50.60;;